createdAt,value
2018-10-17T04:30:29.868Z,14.60
2018-10-17T04:32:57.795Z,13.93
2018-10-17T04:35:25.810Z,15.17
2018-10-17T04:37:53.739Z,13.50
2018-10-17T04:40:21.992Z,13.17
2018-10-17T04:42:49.913Z,13.80
2018-10-17T04:45:17.843Z,13.63
2018-10-17T04:47:45.926Z,15.27
2018-10-17T04:50:13.782Z,13.40
2018-10-17T04:52:41.788Z,15.00
2018-10-17T04:55:10.572Z,15.67
2018-10-17T04:57:38.572Z,14.97
2018-10-17T05:00:07.497Z,15.30
2018-10-17T05:02:35.419Z,16.77
2018-10-17T05:05:03.429Z,15.03
2018-10-17T05:07:31.296Z,15.23
2018-10-17T05:09:59.220Z,15.60
2018-10-17T05:12:27.157Z,14.70
2018-10-17T05:14:55.222Z,15.53
2018-10-17T05:17:23.133Z,15.97
2018-10-17T05:19:51.086Z,14.63
2018-10-17T05:22:19.009Z,15.40
2018-10-17T05:24:46.956Z,14.13
2018-10-17T05:27:15.135Z,15.73
2018-10-17T05:29:43.074Z,15.27
2018-10-17T05:32:10.592Z,15.00
2018-10-17T05:34:38.643Z,16.20
2018-10-17T05:37:06.750Z,15.00
2018-10-17T05:39:34.711Z,15.80
2018-10-17T05:42:02.784Z,15.43
2018-10-17T05:44:30.936Z,15.50
2018-10-17T05:46:58.743Z,14.20
2018-10-17T05:49:26.740Z,15.27
2018-10-17T05:51:54.765Z,15.00
2018-10-17T05:54:22.264Z,15.57
2018-10-17T05:56:50.298Z,14.77
2018-10-17T05:59:18.265Z,15.57
2018-10-17T06:01:46.291Z,14.40
2018-10-17T06:04:14.195Z,14.60
2018-10-17T06:06:42.128Z,14.97
2018-10-17T06:09:11.431Z,14.57
2018-10-17T06:11:39.379Z,15.17
2018-10-17T06:14:08.849Z,14.47
2018-10-17T06:16:36.815Z,14.80
2018-10-17T06:19:05.116Z,15.03
2018-10-17T06:21:32.996Z,14.50
2018-10-17T06:24:00.960Z,15.27
2018-10-17T06:26:28.976Z,14.20
2018-10-17T06:28:56.934Z,17.93
2018-10-17T06:31:24.944Z,16.37
2018-10-17T06:33:52.905Z,17.40
2018-10-17T06:36:20.800Z,16.90
2018-10-17T06:38:48.752Z,16.40
2018-10-17T06:41:17.030Z,15.90
2018-10-17T06:43:45.100Z,16.33
2018-10-17T15:00:28.008Z,6.27
2018-10-17T15:02:56.039Z,6.80
2018-10-17T15:05:23.963Z,7.47
2018-10-17T15:07:51.916Z,6.50
2018-10-17T15:10:19.985Z,6.77
2018-10-17T15:12:47.951Z,6.80
2018-10-17T15:15:15.982Z,6.60
2018-10-17T15:17:43.852Z,6.07
2018-10-17T15:20:12.711Z,6.77
2018-10-17T15:22:40.643Z,6.97
2018-10-17T15:25:08.669Z,8.27
2018-10-17T15:27:36.762Z,6.13
2018-10-17T15:30:05.414Z,7.43
2018-10-17T15:32:33.272Z,7.00
2018-10-17T15:35:01.241Z,6.53
2018-10-17T15:37:29.168Z,7.30
2018-10-17T15:39:57.102Z,7.80
2018-10-17T15:42:25.027Z,7.30
2018-10-17T15:44:52.981Z,7.10
2018-10-17T15:47:20.875Z,7.00
2018-10-17T15:49:48.873Z,7.70
2018-10-17T15:52:16.828Z,7.23
2018-10-17T15:54:44.783Z,8.10
2018-10-17T15:57:12.807Z,7.80
2018-10-17T15:59:40.655Z,7.50
2018-10-17T16:02:08.214Z,7.57
2018-10-17T16:04:36.066Z,7.87
2018-10-17T16:07:03.983Z,7.37
2018-10-17T16:09:31.915Z,7.40
2018-10-17T16:11:59.925Z,8.30
2018-10-17T16:14:27.840Z,7.80
2018-10-17T16:16:55.827Z,8.57
2018-10-17T16:19:23.696Z,8.40
2018-10-17T16:21:51.644Z,7.80
2018-10-17T16:24:19.731Z,8.80
2018-10-17T16:26:47.552Z,8.60
2018-10-17T16:29:15.475Z,8.70
2018-10-17T16:31:43.515Z,7.63
2018-10-17T16:34:11.091Z,8.33
2018-10-17T16:36:39.191Z,8.20
2018-10-17T16:39:08.052Z,8.13
2018-10-17T16:41:36.105Z,9.40
2018-10-17T16:44:04.118Z,8.90
2018-10-17T16:46:32.048Z,8.10
2018-10-17T16:49:01.052Z,7.53
2018-10-17T16:51:29.025Z,7.93
2018-10-17T16:53:57.024Z,8.67
2018-10-17T16:56:24.948Z,8.40
2018-10-17T16:58:52.936Z,8.40
2018-10-17T17:01:20.899Z,7.80
2018-10-17T17:03:48.855Z,8.10
2018-10-17T17:06:17.260Z,7.90
2018-10-17T17:08:45.143Z,8.10
2018-10-17T17:11:13.208Z,7.57
2018-10-17T17:13:41.144Z,8.30
2018-10-17T17:16:09.129Z,7.97
2018-10-17T17:18:37.015Z,7.87
2018-10-17T17:21:04.999Z,8.27
2018-10-17T17:23:32.972Z,8.20
2018-10-17T17:26:01.072Z,8.30
2018-10-17T17:28:29.072Z,8.40
2018-10-17T17:30:57.039Z,8.47
2018-10-17T17:33:24.969Z,8.10
2018-10-17T17:35:52.895Z,9.40
2018-10-17T17:38:20.873Z,9.20
2018-10-17T17:40:48.835Z,9.40
2018-10-17T17:43:16.791Z,8.67
2018-10-17T17:45:44.720Z,7.83
2018-10-17T17:48:12.740Z,9.27
2018-10-17T17:50:40.196Z,9.10
2018-10-17T17:53:08.115Z,8.30
2018-10-17T17:55:36.045Z,8.43
2018-10-17T17:58:04.044Z,8.20
2018-10-17T18:00:31.959Z,8.30
2018-10-17T18:02:59.936Z,8.97
2018-10-17T18:05:27.971Z,9.30
2018-10-17T18:07:55.981Z,8.97
2018-10-17T18:10:23.912Z,8.57
2018-10-17T18:12:51.848Z,8.50
2018-10-17T18:15:19.779Z,8.77
2018-10-17T18:17:47.752Z,8.50
2018-10-17T18:20:15.684Z,9.17
2018-10-17T18:22:43.703Z,10.27
2018-10-17T18:25:11.642Z,9.37
2018-10-17T18:27:40.858Z,8.93
2018-10-17T18:30:08.695Z,8.03
2018-10-17T18:32:36.647Z,9.00
2018-10-17T18:35:05.408Z,8.00
2018-10-17T18:37:33.367Z,9.73
2018-10-17T18:40:01.488Z,8.60
2018-10-17T18:42:29.640Z,8.93
2018-10-17T18:44:57.587Z,9.13
2018-10-17T18:47:25.563Z,9.50
2018-10-17T18:49:53.104Z,8.53
2018-10-17T18:52:21.029Z,8.83
2018-10-17T18:54:49.084Z,8.60
2018-10-17T18:57:17.162Z,8.17
2018-10-17T18:59:44.977Z,8.93
2018-10-17T19:02:12.954Z,8.17
2018-10-17T19:04:40.923Z,8.57
2018-10-17T19:07:08.896Z,9.73
2018-10-17T19:09:36.855Z,9.43
2018-10-17T19:12:05.148Z,9.50
2018-10-17T19:14:33.167Z,8.90
2018-10-17T19:17:01.089Z,8.27
2018-10-17T19:19:29.039Z,9.10
2018-10-17T19:21:56.964Z,9.50
2018-10-17T19:24:24.925Z,9.83
2018-10-17T19:26:52.934Z,10.30
2018-10-17T19:29:20.916Z,9.13
2018-10-17T19:31:48.855Z,10.27
2018-10-17T19:34:16.776Z,8.67
2018-10-17T19:36:44.862Z,9.60
2018-10-17T19:39:13.411Z,9.13
2018-10-17T19:41:41.753Z,10.03
2018-10-17T19:44:09.671Z,9.23
2018-10-17T19:46:37.629Z,10.03
2018-10-17T19:49:05.109Z,10.90
2018-10-17T19:51:33.063Z,10.23
2018-10-17T19:54:00.988Z,11.03
2018-10-17T19:56:28.958Z,10.47
2018-10-17T19:58:56.883Z,9.83
2018-10-17T20:01:24.947Z,9.47
2018-10-17T20:03:52.936Z,9.77
2018-10-17T20:06:21.146Z,9.63
2018-10-17T20:08:49.149Z,8.77
2018-10-17T20:11:17.352Z,9.13
2018-10-17T20:13:45.400Z,10.00
2018-10-17T20:16:13.865Z,10.40
2018-10-17T20:18:41.804Z,8.93
2018-10-17T20:21:09.922Z,10.50
2018-10-17T20:23:37.996Z,9.43
2018-10-17T20:26:05.964Z,10.77
2018-10-17T20:28:33.984Z,10.40
2018-10-17T20:31:02.435Z,10.53
2018-10-17T20:33:30.431Z,10.83
2018-10-17T20:35:58.472Z,10.80
2018-10-17T20:38:26.711Z,11.70
2018-10-17T20:40:54.947Z,9.63
2018-10-17T20:43:22.984Z,10.47
2018-10-17T20:45:51.594Z,11.37
2018-10-17T20:48:19.788Z,10.87
2018-10-17T20:50:48.815Z,11.23
2018-10-17T20:53:17.739Z,10.77
2018-10-17T20:55:45.670Z,10.37
2018-10-17T20:58:14.792Z,10.03
2018-10-17T21:00:43.239Z,10.27
2018-10-17T21:03:12.559Z,9.87
2018-10-17T21:05:40.537Z,9.90
2018-10-17T21:08:09.202Z,9.70
2018-10-17T21:10:37.218Z,10.30
2018-10-17T21:13:05.160Z,11.03
2018-10-17T21:15:33.212Z,10.50
2018-10-17T21:18:01.778Z,11.37
2018-10-17T21:20:30.165Z,11.90
2018-10-17T21:22:58.951Z,12.73
2018-10-17T21:25:27.815Z,11.27
2018-10-17T21:27:55.756Z,11.57
2018-10-17T21:30:23.720Z,10.13
2018-10-17T21:32:52.168Z,10.70
2018-10-17T21:35:20.184Z,11.13
2018-10-17T21:37:48.163Z,11.40
2018-10-17T21:40:16.028Z,11.10
2018-10-17T21:42:43.979Z,11.00
2018-10-17T21:45:11.940Z,11.47
2018-10-17T21:47:39.918Z,12.13
2018-10-17T21:50:08.027Z,12.20
2018-10-17T21:52:35.570Z,11.20
2018-10-17T21:55:03.520Z,12.70
2018-10-17T21:57:31.472Z,11.93
2018-10-17T21:59:59.463Z,11.80
2018-10-17T22:02:27.417Z,11.27
2018-10-17T22:04:55.432Z,13.33
2018-10-17T22:07:23.388Z,10.80
2018-10-17T22:09:51.931Z,11.83
2018-10-17T22:12:19.850Z,12.00
2018-10-17T22:14:47.856Z,10.40
2018-10-17T22:17:20.195Z,11.20
2018-10-17T22:19:48.187Z,12.40
2018-10-17T22:22:16.104Z,11.27
2018-10-17T22:24:44.139Z,11.30
2018-10-17T22:27:12.041Z,13.13
2018-10-17T22:29:40.000Z,13.43
2018-10-17T22:32:08.129Z,12.57
2018-10-17T22:34:35.971Z,13.00
2018-10-17T22:37:03.935Z,12.70
2018-10-17T22:39:31.864Z,11.73
2018-10-17T22:41:59.838Z,12.37
2018-10-17T22:44:27.761Z,12.00
